createdAt,value
2023-03-17T00:01:01.798Z,95523.69
2023-03-17T00:04:04.369Z,95527.69
2023-03-17T00:07:06.655Z,95524.22
2023-03-17T00:10:14.507Z,95521.75
2023-03-17T00:13:16.459Z,95524.03
2023-03-17T00:16:23.996Z,95521.69
2023-03-17T00:19:30.811Z,95522.53
2023-03-17T00:22:32.769Z,95524.72
2023-03-17T00:25:36.044Z,95521.94
2023-03-17T00:28:38.663Z,95520.84
2023-03-17T00:31:43.729Z,95514.66
2023-03-17T00:34:45.928Z,95513.44
2023-03-17T00:41:11.991Z,95502.91
2023-03-17T00:44:13.891Z,95501.66
2023-03-17T00:47:17.591Z,95499.00
2023-03-17T00:50:22.750Z,95493.69
2023-03-17T00:53:24.573Z,95493.94
2023-03-17T00:56:26.496Z,95489.69
2023-03-17T00:59:32.002Z,95484.00
2023-03-17T01:02:35.594Z,95481.50
2023-03-17T01:05:38.178Z,95477.63
2023-03-17T01:08:41.500Z,95480.63
2023-03-17T01:11:43.832Z,95475.00
2023-03-17T01:14:45.823Z,95465.00
2023-03-17T01:17:49.805Z,95460.72
2023-03-17T01:20:54.690Z,95466.31
2023-03-17T01:23:57.235Z,95457.38
2023-03-17T01:26:59.132Z,95453.72
2023-03-17T01:30:01.387Z,95444.63
2023-03-17T01:33:05.867Z,95440.41
2023-03-17T01:36:09.918Z,95443.63
2023-03-17T01:42:35.923Z,95440.72
2023-03-17T01:46:16.575Z,95433.19
2023-03-17T01:49:32.249Z,95431.13
2023-03-17T01:52:38.250Z,95424.00
2023-03-17T01:55:41.869Z,95415.91
2023-03-17T01:58:49.489Z,95414.63
2023-03-17T02:01:54.767Z,95409.94
2023-03-17T02:04:59.102Z,95409.81
2023-03-17T02:08:01.165Z,95405.38
2023-03-17T02:11:05.310Z,95398.69
2023-03-17T02:14:07.275Z,95401.03
2023-03-17T02:17:10.103Z,95392.56
2023-03-17T02:21:05.408Z,95392.31
2023-03-17T02:24:16.213Z,95393.41
2023-03-17T02:27:22.067Z,95390.34
2023-03-17T02:30:24.932Z,95376.69
2023-03-17T02:33:29.757Z,95382.78
2023-03-17T02:36:31.747Z,95377.44
2023-03-17T02:39:35.205Z,95371.03
2023-03-17T02:42:38.007Z,95363.41
2023-03-17T02:45:39.922Z,95368.44
2023-03-17T02:48:42.583Z,95372.34
2023-03-17T02:51:44.746Z,95367.66
2023-03-17T02:54:48.237Z,95362.53
2023-03-17T02:57:50.500Z,95360.47
2023-03-17T03:00:52.835Z,95358.44
2023-03-17T03:03:55.617Z,95356.38
2023-03-17T03:06:57.539Z,95356.78
2023-03-17T03:10:00.812Z,95357.66
2023-03-17T03:13:02.613Z,95349.47
2023-03-17T03:16:05.119Z,95351.22
2023-03-17T03:19:08.117Z,95360.25
2023-03-17T03:22:10.470Z,95364.34
2023-03-17T03:25:13.689Z,95352.91
2023-03-17T03:28:15.956Z,95354.97
2023-03-17T03:31:17.872Z,95361.53
2023-03-17T03:34:20.107Z,95364.06
2023-03-17T03:37:22.417Z,95368.63
2023-03-17T03:40:26.759Z,95367.31
2023-03-17T03:43:28.851Z,95367.44
2023-03-17T03:46:31.102Z,95367.25
2023-03-17T03:49:33.154Z,95362.72
2023-03-17T03:52:35.036Z,95362.44
2023-03-17T03:55:38.572Z,95367.19
2023-03-17T03:58:41.896Z,95364.19
2023-03-17T04:01:44.156Z,95364.38
2023-03-17T04:04:46.372Z,95356.19
2023-03-17T04:07:50.148Z,95363.09
2023-03-17T04:10:53.301Z,95355.47
2023-03-17T04:13:55.246Z,95360.16
2023-03-17T04:16:57.285Z,95360.75
2023-03-17T04:19:59.242Z,95359.47
2023-03-17T04:23:01.133Z,95356.34
2023-03-17T04:26:05.658Z,95358.72
2023-03-17T04:29:07.993Z,95356.13
2023-03-17T04:32:11.782Z,95353.50
2023-03-17T04:35:14.849Z,95350.66
2023-03-17T04:38:17.087Z,95345.47
2023-03-17T04:41:20.646Z,95340.63
2023-03-17T04:44:23.577Z,95340.16
2023-03-17T04:47:25.790Z,95329.22
2023-03-17T04:50:29.809Z,95328.38
2023-03-17T04:53:31.995Z,95327.03
2023-03-17T04:56:35.761Z,95318.84
2023-03-17T04:59:38.018Z,95317.75
2023-03-17T05:02:40.190Z,95316.97
2023-03-17T05:05:42.089Z,95311.34
2023-03-17T05:08:45.112Z,95316.06
2023-03-17T05:11:48.600Z,95314.97
2023-03-17T05:14:50.755Z,95313.66
2023-03-17T05:17:52.984Z,95320.97
2023-03-17T05:20:55.522Z,95329.72
2023-03-17T05:23:58.005Z,95324.81
2023-03-17T05:27:02.454Z,95327.66
2023-03-17T05:30:05.436Z,95325.59
2023-03-17T05:33:07.443Z,95332.94
2023-03-17T05:36:09.971Z,95329.97
2023-03-17T05:39:14.450Z,95329.09
2023-03-17T05:42:18.012Z,95326.09
2023-03-17T05:45:19.810Z,95319.69
2023-03-17T05:48:21.988Z,95314.03
2023-03-17T05:51:24.217Z,95312.47
2023-03-17T05:54:26.296Z,95306.34
2023-03-17T05:57:29.771Z,95320.28
2023-03-17T06:00:32.269Z,95323.75
2023-03-17T06:03:34.334Z,95327.03
2023-03-17T06:06:36.263Z,95326.06
2023-03-17T06:09:38.110Z,95320.50
2023-03-17T06:12:42.415Z,95319.88
2023-03-17T06:15:44.965Z,95328.88
2023-03-17T06:18:46.799Z,95324.97
2023-03-17T06:21:48.865Z,95330.53
2023-03-17T06:24:52.118Z,95330.53
2023-03-17T06:27:55.300Z,95335.97
2023-03-17T06:30:57.538Z,95333.34
2023-03-17T06:33:59.782Z,95322.50
2023-03-17T06:37:02.051Z,95321.34
2023-03-17T06:40:06.486Z,95317.72
2023-03-17T06:43:09.926Z,95317.72
2023-03-17T06:46:11.854Z,95322.59
2023-03-17T06:49:14.045Z,95319.28
2023-03-17T06:52:16.219Z,95324.44
2023-03-17T06:55:18.229Z,95324.81
2023-03-17T06:58:21.553Z,95330.56
2023-03-17T07:01:23.507Z,95333.50
2023-03-17T07:04:27.008Z,95332.44
2023-03-17T07:07:28.983Z,95340.63
2023-03-17T07:10:30.840Z,95339.25
2023-03-17T07:13:34.444Z,95329.38
2023-03-17T07:16:36.245Z,95331.72
2023-03-17T07:19:38.270Z,95334.63
2023-03-17T07:22:40.680Z,95325.88
2023-03-17T07:25:42.788Z,95325.81
2023-03-17T07:28:46.407Z,95323.59
2023-03-17T07:31:48.683Z,95328.63
2023-03-17T07:34:50.936Z,95328.63
2023-03-17T07:41:17.103Z,95333.97
2023-03-17T07:44:20.517Z,95331.97
2023-03-17T07:47:22.350Z,95336.53
2023-03-17T07:50:24.940Z,95323.97
2023-03-17T07:53:26.944Z,95325.38
2023-03-17T07:56:29.149Z,95327.06
2023-03-17T07:59:33.006Z,95324.06
2023-03-17T08:02:35.720Z,95318.84
2023-03-17T08:05:37.832Z,95316.59
2023-03-17T08:08:40.070Z,95307.34
2023-03-17T08:11:42.275Z,95298.72
2023-03-17T08:14:45.727Z,95295.66
2023-03-17T08:17:47.990Z,95289.19
2023-03-17T08:20:50.739Z,95296.97
2023-03-17T08:23:53.057Z,95298.69
2023-03-17T08:26:54.893Z,95291.81
2023-03-17T08:29:58.221Z,95288.69
2023-03-17T08:33:00.168Z,95296.13
2023-03-17T08:36:06.236Z,95288.28
2023-03-17T08:42:33.487Z,95288.13
2023-03-17T08:45:39.084Z,95280.81
2023-03-17T08:48:41.584Z,95281.06
2023-03-17T08:51:44.144Z,95281.09
2023-03-17T08:54:46.435Z,95281.09
2023-03-17T08:57:48.277Z,95287.03
2023-03-17T09:00:52.786Z,95278.03
2023-03-17T09:03:55.260Z,95280.78
2023-03-17T09:07:03.859Z,95275.63
2023-03-17T09:10:08.464Z,95280.03
2023-03-17T09:13:11.525Z,95275.97
2023-03-17T09:16:15.925Z,95285.63
2023-03-17T09:19:18.056Z,95283.69
2023-03-17T09:22:20.358Z,95281.03
2023-03-17T09:25:22.399Z,95283.38
2023-03-17T09:28:24.510Z,95286.75
2023-03-17T09:31:27.915Z,95294.88
2023-03-17T09:34:30.171Z,95293.38
2023-03-17T09:37:33.059Z,95296.56
2023-03-17T09:40:40.015Z,95294.50
2023-03-17T09:43:50.431Z,95290.25
2023-03-17T09:47:06.978Z,95289.66
2023-03-17T09:50:15.659Z,95289.84
2023-03-17T09:53:20.883Z,95285.63
2023-03-17T09:56:24.328Z,95288.00
2023-03-17T09:59:31.028Z,95283.63
2023-03-17T10:02:37.200Z,95281.81
2023-03-17T10:05:41.197Z,95283.41
2023-03-17T10:08:51.479Z,95276.06
2023-03-17T10:12:02.098Z,95273.09
2023-03-17T10:15:11.546Z,95266.25
2023-03-17T10:18:17.112Z,95266.03
2023-03-17T10:21:22.849Z,95251.56
2023-03-17T10:24:27.903Z,95247.88
2023-03-17T10:27:34.287Z,95249.41
2023-03-17T10:30:36.453Z,95249.19
2023-03-17T10:33:39.768Z,95255.44
2023-03-17T10:36:43.998Z,95255.88
2023-03-17T10:39:47.532Z,95246.78
2023-03-17T10:42:54.415Z,95246.00
2023-03-17T10:46:00.770Z,95233.94
2023-03-17T10:49:08.108Z,95232.56
2023-03-17T10:52:27.974Z,95231.03
2023-03-17T10:55:32.123Z,95228.47
2023-03-17T10:58:38.079Z,95233.47
2023-03-17T11:01:44.512Z,95227.78
2023-03-17T11:04:47.956Z,95229.09
2023-03-17T11:07:50.542Z,95230.72
2023-03-17T11:10:55.479Z,95225.44
2023-03-17T11:14:02.591Z,95213.84
2023-03-17T11:17:21.506Z,95216.91
2023-03-17T11:20:41.872Z,95206.97
2023-03-17T11:23:50.912Z,95200.91
2023-03-17T11:26:58.083Z,95201.31
2023-03-17T11:30:23.153Z,95192.22
2023-03-17T11:33:37.924Z,95188.41
2023-03-17T11:36:50.842Z,95188.88
2023-03-17T11:39:58.606Z,95187.72
2023-03-17T11:43:18.266Z,95185.47
2023-03-17T11:46:25.413Z,95185.91
2023-03-17T11:49:34.233Z,95183.25
2023-03-17T11:52:50.607Z,95185.22
2023-03-17T11:55:57.400Z,95167.84
2023-03-17T11:59:02.189Z,95164.00
2023-03-17T12:02:19.564Z,95157.88
2023-03-17T12:05:25.038Z,95156.72
2023-03-17T12:08:37.738Z,95162.91
2023-03-17T12:11:43.625Z,95155.97
2023-03-17T12:14:50.007Z,95147.50
2023-03-17T12:18:00.519Z,95143.66
2023-03-17T12:21:10.059Z,95142.50
2023-03-17T12:24:19.052Z,95139.78
2023-03-17T12:27:25.828Z,95141.34
2023-03-17T12:30:33.534Z,95130.13
2023-03-17T12:33:42.749Z,95131.66
2023-03-17T12:36:45.410Z,95125.88
2023-03-17T12:39:56.408Z,95128.19
2023-03-17T12:43:18.430Z,95125.88
2023-03-17T12:46:50.358Z,95122.41
2023-03-17T12:50:19.377Z,95119.69
2023-03-17T12:53:28.771Z,95111.56
2023-03-17T12:56:35.017Z,95113.84
2023-03-17T12:59:37.626Z,95111.16
2023-03-17T13:02:40.521Z,95118.09
2023-03-17T13:05:46.485Z,95112.28
2023-03-17T13:08:50.890Z,95113.06
2023-03-17T13:11:55.001Z,95109.97
2023-03-17T13:14:58.661Z,95097.63
2023-03-17T13:18:52.740Z,95101.84
2023-03-17T13:22:31.908Z,95096.44
2023-03-17T13:25:36.419Z,95090.25
2023-03-17T13:28:45.700Z,95088.72
2023-03-17T13:31:48.809Z,95090.63
2023-03-17T13:34:52.805Z,95094.00
2023-03-17T13:38:11.625Z,95078.97
2023-03-17T13:41:47.409Z,95073.91
2023-03-17T13:45:11.318Z,95083.56
2023-03-17T13:48:32.135Z,95083.16
2023-03-17T13:51:34.356Z,95076.91
2023-03-17T13:54:43.126Z,95068.75
2023-03-17T13:57:54.492Z,95069.91
2023-03-17T14:01:05.620Z,95072.19
2023-03-17T14:04:17.597Z,95071.03
2023-03-17T14:07:24.707Z,95069.00
2023-03-17T14:10:30.322Z,95065.88
2023-03-17T14:13:42.240Z,95073.47
2023-03-17T14:16:59.230Z,95072.56
2023-03-17T14:20:04.151Z,95058.47
2023-03-17T14:23:06.599Z,95064.59
2023-03-17T14:26:11.844Z,95059.56
2023-03-17T14:29:15.719Z,95064.13
2023-03-17T14:32:21.125Z,95055.22
2023-03-17T14:35:22.988Z,95048.69
2023-03-17T14:42:02.460Z,95042.34
2023-03-17T14:45:08.020Z,95036.50
2023-03-17T14:48:14.963Z,95022.91
2023-03-17T14:51:26.634Z,95033.00
2023-03-17T14:54:34.324Z,95031.78
2023-03-17T14:57:37.920Z,95021.72
2023-03-17T15:00:46.710Z,95014.81
2023-03-17T15:03:57.988Z,95023.31
2023-03-17T15:07:02.419Z,95014.44
2023-03-17T15:10:06.789Z,95017.91
2023-03-17T15:13:12.466Z,95008.72
2023-03-17T15:16:22.663Z,95007.34
2023-03-17T15:19:30.007Z,94996.22
2023-03-17T15:22:39.594Z,94998.69
2023-03-17T15:25:45.795Z,94996.19
2023-03-17T15:28:47.662Z,94999.72
2023-03-17T15:31:49.578Z,95002.91
2023-03-17T15:34:55.749Z,94999.91
2023-03-17T15:37:58.080Z,94998.75
2023-03-17T15:41:05.156Z,95002.34
2023-03-17T15:44:07.483Z,94995.47
2023-03-17T15:47:14.382Z,94997.38
2023-03-17T15:50:21.924Z,94996.91
2023-03-17T15:53:24.485Z,94995.84
2023-03-17T15:56:29.418Z,94995.81
2023-03-17T15:59:31.716Z,94992.91
2023-03-17T16:02:34.951Z,94999.06
2023-03-17T16:05:38.181Z,95003.75
2023-03-17T16:08:40.257Z,95002.25
2023-03-17T16:11:42.226Z,95003.78
2023-03-17T16:14:44.078Z,94994.16
2023-03-17T16:17:47.579Z,95000.34
2023-03-17T16:20:52.958Z,95001.50
2023-03-17T16:23:56.018Z,94995.75
2023-03-17T16:26:58.488Z,94989.22
2023-03-17T16:30:00.330Z,94997.72
2023-03-17T16:33:09.191Z,94986.16
2023-03-17T16:36:16.770Z,94987.34
2023-03-17T16:39:23.908Z,94990.81
2023-03-17T16:42:26.010Z,94991.63
2023-03-17T16:45:30.479Z,94994.75
2023-03-17T16:48:33.206Z,94984.34
2023-03-17T16:51:36.728Z,94988.59
2023-03-17T16:54:39.148Z,94992.88
2023-03-17T16:57:45.980Z,94989.03
2023-03-17T17:00:50.973Z,94985.16
2023-03-17T17:03:53.920Z,94978.97
2023-03-17T17:06:57.693Z,94989.44
2023-03-17T17:09:59.624Z,94985.59
2023-03-17T17:13:02.910Z,94993.31
2023-03-17T17:16:06.199Z,94987.53
2023-03-17T17:19:15.443Z,94988.72
2023-03-17T17:22:19.439Z,94985.66
2023-03-17T17:25:22.354Z,94989.94
2023-03-17T17:28:25.590Z,94986.44
2023-03-17T17:31:28.562Z,94979.50
2023-03-17T17:34:30.783Z,94988.38
2023-03-17T17:37:39.526Z,94988.75
2023-03-17T17:40:41.966Z,94984.91
2023-03-17T17:43:44.459Z,94978.75
2023-03-17T17:46:48.884Z,94993.75
2023-03-17T17:49:52.969Z,94984.13
2023-03-17T17:52:58.248Z,94983.38
2023-03-17T17:56:03.781Z,94979.50
2023-03-17T17:59:06.603Z,94981.44
2023-03-17T18:02:11.576Z,94977.59
2023-03-17T18:05:14.266Z,94988.00
2023-03-17T18:08:17.927Z,94988.75
2023-03-17T18:11:20.856Z,94981.81
2023-03-17T18:14:24.651Z,94991.44
2023-03-17T18:17:27.244Z,94983.72
2023-03-17T18:20:31.054Z,94988.38
2023-03-17T18:23:37.065Z,94985.66
2023-03-17T18:26:40.500Z,94983.34
2023-03-17T18:29:44.001Z,94979.47
2023-03-17T18:32:50.343Z,94973.34
2023-03-17T18:35:53.639Z,94979.88
2023-03-17T18:38:58.422Z,94978.31
2023-03-17T18:42:01.132Z,94975.22
2023-03-17T18:45:04.614Z,94979.06
2023-03-17T18:48:07.419Z,94974.84
2023-03-17T18:51:14.863Z,94974.06
2023-03-17T18:54:21.268Z,94971.38
2023-03-17T18:57:27.179Z,94975.66
2023-03-17T19:00:31.489Z,94976.81
2023-03-17T19:03:35.260Z,94967.19
2023-03-17T19:06:41.867Z,94977.19
2023-03-17T19:09:52.649Z,94975.66
2023-03-17T19:12:58.176Z,94963.31
2023-03-17T19:16:02.096Z,94960.63
2023-03-17T19:19:09.544Z,94959.44
2023-03-17T19:22:14.864Z,94960.97
2023-03-17T19:25:20.592Z,94959.06
2023-03-17T19:28:24.197Z,94957.09
2023-03-17T19:31:27.736Z,94957.50
2023-03-17T19:34:31.802Z,94953.63
2023-03-17T19:37:35.873Z,94960.16
2023-03-17T19:40:40.887Z,94967.47
2023-03-17T19:43:43.757Z,94964.75
2023-03-17T19:46:48.788Z,94965.53
2023-03-17T19:49:51.992Z,94960.91
2023-03-17T19:52:56.260Z,94962.03
2023-03-17T19:56:02.200Z,94960.88
2023-03-17T19:59:09.653Z,94966.25
2023-03-17T20:02:17.629Z,94958.94
2023-03-17T20:05:22.535Z,94956.25
2023-03-17T20:08:26.695Z,94958.94
2023-03-17T20:11:31.972Z,94953.16
2023-03-17T20:14:36.467Z,94957.38
2023-03-17T20:17:39.688Z,94965.44
2023-03-17T20:20:46.280Z,94956.22
2023-03-17T20:23:51.543Z,94960.41
2023-03-17T20:26:58.015Z,94952.31
2023-03-17T20:30:03.112Z,94942.34
2023-03-17T20:33:07.413Z,94942.25
2023-03-17T20:36:11.856Z,94946.88
2023-03-17T20:39:16.116Z,94958.38
2023-03-17T20:42:22.188Z,94952.63
2023-03-17T20:45:24.849Z,94958.41
2023-03-17T20:48:31.292Z,94940.66
2023-03-17T20:51:36.234Z,94945.31
2023-03-17T20:54:39.916Z,94939.94
2023-03-17T20:57:45.404Z,94936.81
2023-03-17T21:00:52.872Z,94930.63
2023-03-17T21:03:55.823Z,94933.69
2023-03-17T21:06:59.413Z,94937.53
2023-03-17T21:10:02.534Z,94930.59
2023-03-17T21:13:06.855Z,94933.69
2023-03-17T21:16:16.087Z,94937.56
2023-03-17T21:19:18.290Z,94931.31
2023-03-17T21:22:20.454Z,94935.97
2023-03-17T21:25:23.683Z,94929.38
2023-03-17T21:28:27.904Z,94930.88
2023-03-17T21:31:31.532Z,94938.09
2023-03-17T21:34:35.171Z,94936.91
2023-03-17T21:37:37.577Z,94932.66
2023-03-17T21:40:39.550Z,94942.22
2023-03-17T21:43:44.477Z,94940.31
2023-03-17T21:46:49.196Z,94941.44
2023-03-17T21:49:51.445Z,94931.06
2023-03-17T21:52:54.295Z,94938.00
2023-03-17T21:55:56.423Z,94936.81
2023-03-17T21:58:59.730Z,94936.03
2023-03-17T22:02:03.254Z,94930.66
2023-03-17T22:05:06.519Z,94929.84
2023-03-17T22:08:08.698Z,94932.56
2023-03-17T22:11:15.151Z,94932.13
2023-03-17T22:14:20.185Z,94929.00
2023-03-17T22:17:22.757Z,94930.94
2023-03-17T22:20:25.499Z,94929.78
2023-03-17T22:23:29.394Z,94928.09
2023-03-17T22:26:32.004Z,94923.13
2023-03-17T22:29:36.006Z,94918.47
2023-03-17T22:32:38.684Z,94922.66
2023-03-17T22:35:41.255Z,94922.16
2023-03-17T22:42:08.960Z,94920.69
2023-03-17T22:45:13.223Z,94916.78
2023-03-17T22:48:15.350Z,94924.13
2023-03-17T22:51:19.803Z,94929.84
2023-03-17T22:54:23.353Z,94928.34
2023-03-17T22:57:25.884Z,94928.72
2023-03-17T23:00:30.628Z,94924.84
2023-03-17T23:03:33.450Z,94942.81
2023-03-17T23:06:36.638Z,94933.16
2023-03-17T23:09:39.111Z,94939.22
2023-03-17T23:12:41.582Z,94936.47
2023-03-17T23:15:45.307Z,94940.66
2023-03-17T23:18:49.016Z,94946.38
2023-03-17T23:21:51.234Z,94949.06
2023-03-17T23:24:53.359Z,94959.66
2023-03-17T23:27:55.700Z,94965.28
2023-03-17T23:31:01.208Z,94977.59
2023-03-17T23:34:03.759Z,94986.31
2023-03-17T23:37:06.449Z,94995.78
2023-03-17T23:40:10.599Z,94997.63
2023-03-17T23:43:13.210Z,95009.53
2023-03-17T23:46:19.362Z,95008.81
2023-03-17T23:49:21.705Z,95022.50
2023-03-17T23:52:23.960Z,95019.19
2023-03-17T23:55:27.099Z,95018.91
2023-03-17T23:58:30.088Z,95019.31
